Chebba, Tunisia
Current Conditions -  °F | °C
As of 3:00 AM on Thursday 23 Oct 2014 (Local Time) from DTMB Reporting Station
Scattered Clouds Scattered Clouds  
Wind Chill: 68°   Ceiling: Unl
Heat Index: 68°   Visibility: 6mi
Dew Point: 52°   Wind: 21mph
Humidity: 56%   Direction: 290°WNW
Pressure: 29.97"   Gusts: NA
Location:  35.24°N, 11.12°E
Report Text: DTMB 230200Z 29018KT 9999 SCT020 20/11 Q1015 NOSIG
Loading
Personal Weather Stations






























Interactive Weather Map
Tropical Storm Tracking
New forecast layout! Learn more

10-Day Weather Forecast

Advertisements
Track Severe Weather on mobile